sensor_id;sensor_type;location;lat;lon;timestamp;temperature;humidity
19906;DHT22;10115;50.906;4.438;2023-06-19T00:00:56;19.50;99.90
19906;DHT22;10115;50.906;4.438;2023-06-19T00:03:21;19.50;99.90
19906;DHT22;10115;50.906;4.438;2023-06-19T00:05:47;19.40;99.90
19906;DHT22;10115;50.906;4.438;2023-06-19T00:08:12;19.30;99.90
19906;DHT22;10115;50.906;4.438;2023-06-19T00:10:38;19.30;99.90
19906;DHT22;10115;50.906;4.438;2023-06-19T00:13:04;19.30;99.90
19906;DHT22;10115;50.906;4.438;2023-06-19T00:15:29;19.20;99.90
19906;DHT22;10115;50.906;4.438;2023-06-19T00:17:56;19.10;99.90
19906;DHT22;10115;50.906;4.438;2023-06-19T00:20:23;19.10;99.90
19906;DHT22;10115;50.906;4.438;2023-06-19T00:22:48;19.20;99.90
19906;DHT22;10115;50.906;4.438;2023-06-19T00:25:20;19.30;99.90
19906;DHT22;10115;50.906;4.438;2023-06-19T00:27:46;19.30;99.90
19906;DHT22;10115;50.906;4.438;2023-06-19T00:30:12;19.30;99.90
19906;DHT22;10115;50.906;4.438;2023-06-19T00:32:38;19.20;99.90
19906;DHT22;10115;50.906;4.438;2023-06-19T00:35:15;19.20;99.90
19906;DHT22;10115;50.906;4.438;2023-06-19T00:37:42;19.10;99.90
19906;DHT22;10115;50.906;4.438;2023-06-19T00:40:31;19.10;99.90
19906;DHT22;10115;50.906;4.438;2023-06-19T00:42:58;19.20;99.90
19906;DHT22;10115;50.906;4.438;2023-06-19T00:45:24;19.20;99.90
19906;DHT22;10115;50.906;4.438;2023-06-19T00:47:53;19.20;99.90
19906;DHT22;10115;50.906;4.438;2023-06-19T00:50:20;19.10;99.90
19906;DHT22;10115;50.906;4.438;2023-06-19T00:52:46;19.10;99.90
19906;DHT22;10115;50.906;4.438;2023-06-19T00:55:12;19.00;99.90
19906;DHT22;10115;50.906;4.438;2023-06-19T00:57:39;19.00;99.90
19906;DHT22;10115;50.906;4.438;2023-06-19T01:00:05;19.00;99.90
19906;DHT22;10115;50.906;4.438;2023-06-19T01:02:33;19.00;99.90
19906;DHT22;10115;50.906;4.438;2023-06-19T01:04:58;19.00;99.90
19906;DHT22;10115;50.906;4.438;2023-06-19T01:10:32;19.00;99.90
19906;DHT22;10115;50.906;4.438;2023-06-19T01:15:52;18.90;99.90
19906;DHT22;10115;50.906;4.438;2023-06-19T01:18:20;18.90;99.90
19906;DHT22;10115;50.906;4.438;2023-06-19T01:20:48;19.00;99.90
19906;DHT22;10115;50.906;4.438;2023-06-19T01:23:14;19.00;99.90
19906;DHT22;10115;50.906;4.438;2023-06-19T01:25:40;19.00;99.90
19906;DHT22;10115;50.906;4.438;2023-06-19T01:28:08;19.00;99.90
19906;DHT22;10115;50.906;4.438;2023-06-19T01:30:37;19.00;99.90
19906;DHT22;10115;50.906;4.438;2023-06-19T01:33:22;18.90;99.90
19906;DHT22;10115;50.906;4.438;2023-06-19T01:35:49;18.90;99.90
19906;DHT22;10115;50.906;4.438;2023-06-19T01:38:16;18.90;99.90
19906;DHT22;10115;50.906;4.438;2023-06-19T01:40:43;18.90;99.90
19906;DHT22;10115;50.906;4.438;2023-06-19T01:43:10;18.90;99.90
19906;DHT22;10115;50.906;4.438;2023-06-19T01:45:36;19.00;99.90
19906;DHT22;10115;50.906;4.438;2023-06-19T01:48:02;19.00;99.90
19906;DHT22;10115;50.906;4.438;2023-06-19T01:50:28;19.00;99.90
19906;DHT22;10115;50.906;4.438;2023-06-19T01:52:53;19.00;99.90
19906;DHT22;10115;50.906;4.438;2023-06-19T01:55:20;19.10;99.90
19906;DHT22;10115;50.906;4.438;2023-06-19T01:57:45;19.10;99.90
19906;DHT22;10115;50.906;4.438;2023-06-19T02:00:12;19.10;99.90
19906;DHT22;10115;50.906;4.438;2023-06-19T02:02:38;19.10;99.90
19906;DHT22;10115;50.906;4.438;2023-06-19T02:05:04;19.10;99.90
19906;DHT22;10115;50.906;4.438;2023-06-19T02:07:30;19.00;99.90
19906;DHT22;10115;50.906;4.438;2023-06-19T02:09:56;19.10;99.90
19906;DHT22;10115;50.906;4.438;2023-06-19T02:12:22;19.10;99.90
19906;DHT22;10115;50.906;4.438;2023-06-19T02:14:48;19.10;99.90
19906;DHT22;10115;50.906;4.438;2023-06-19T02:17:13;19.10;99.90
19906;DHT22;10115;50.906;4.438;2023-06-19T02:19:39;19.10;99.90
19906;DHT22;10115;50.906;4.438;2023-06-19T02:22:05;19.10;99.90
19906;DHT22;10115;50.906;4.438;2023-06-19T02:24:32;19.10;99.90
19906;DHT22;10115;50.906;4.438;2023-06-19T02:26:57;19.10;99.90
19906;DHT22;10115;50.906;4.438;2023-06-19T02:29:24;19.10;99.90
19906;DHT22;10115;50.906;4.438;2023-06-19T02:31:50;19.10;99.90
19906;DHT22;10115;50.906;4.438;2023-06-19T02:34:16;19.10;99.90
19906;DHT22;10115;50.906;4.438;2023-06-19T02:36:41;19.10;99.90
19906;DHT22;10115;50.906;4.438;2023-06-19T02:39:08;19.10;99.90
19906;DHT22;10115;50.906;4.438;2023-06-19T02:41:34;19.10;99.90
19906;DHT22;10115;50.906;4.438;2023-06-19T02:44:00;19.10;99.90
19906;DHT22;10115;50.906;4.438;2023-06-19T02:46:26;19.10;99.90
19906;DHT22;10115;50.906;4.438;2023-06-19T02:48:51;19.20;99.90
19906;DHT22;10115;50.906;4.438;2023-06-19T02:51:17;19.20;99.90
19906;DHT22;10115;50.906;4.438;2023-06-19T02:53:43;19.20;99.90
19906;DHT22;10115;50.906;4.438;2023-06-19T02:56:10;19.20;99.90
19906;DHT22;10115;50.906;4.438;2023-06-19T02:58:36;19.10;99.90
19906;DHT22;10115;50.906;4.438;2023-06-19T03:01:03;19.20;99.90
19906;DHT22;10115;50.906;4.438;2023-06-19T03:03:29;19.10;99.90
19906;DHT22;10115;50.906;4.438;2023-06-19T03:05:56;19.10;99.90
19906;DHT22;10115;50.906;4.438;2023-06-19T03:08:21;19.10;99.90
19906;DHT22;10115;50.906;4.438;2023-06-19T03:10:47;19.10;99.90
19906;DHT22;10115;50.906;4.438;2023-06-19T03:13:13;19.10;99.90
19906;DHT22;10115;50.906;4.438;2023-06-19T03:15:39;19.10;99.90
19906;DHT22;10115;50.906;4.438;2023-06-19T03:18:04;19.10;99.90
19906;DHT22;10115;50.906;4.438;2023-06-19T03:20:33;19.10;99.90
19906;DHT22;10115;50.906;4.438;2023-06-19T03:22:58;19.10;99.90
19906;DHT22;10115;50.906;4.438;2023-06-19T03:25:24;19.10;99.90
19906;DHT22;10115;50.906;4.438;2023-06-19T03:27:49;19.10;99.90
19906;DHT22;10115;50.906;4.438;2023-06-19T03:30:15;19.00;99.90
19906;DHT22;10115;50.906;4.438;2023-06-19T03:32:44;18.90;99.90
19906;DHT22;10115;50.906;4.438;2023-06-19T03:35:09;18.90;99.90
19906;DHT22;10115;50.906;4.438;2023-06-19T03:37:36;18.90;99.90
19906;DHT22;10115;50.906;4.438;2023-06-19T03:40:02;18.90;99.90
19906;DHT22;10115;50.906;4.438;2023-06-19T03:42:28;18.90;99.90
19906;DHT22;10115;50.906;4.438;2023-06-19T03:44:54;18.90;99.90
19906;DHT22;10115;50.906;4.438;2023-06-19T03:47:21;18.90;99.90
19906;DHT22;10115;50.906;4.438;2023-06-19T03:49:46;18.80;99.90
19906;DHT22;10115;50.906;4.438;2023-06-19T03:52:14;18.80;99.90
19906;DHT22;10115;50.906;4.438;2023-06-19T03:54:39;18.80;99.90
19906;DHT22;10115;50.906;4.438;2023-06-19T03:57:05;18.70;99.90
19906;DHT22;10115;50.906;4.438;2023-06-19T03:59:31;18.70;99.90
19906;DHT22;10115;50.906;4.438;2023-06-19T04:01:57;18.70;99.90
19906;DHT22;10115;50.906;4.438;2023-06-19T04:04:23;18.70;99.90
19906;DHT22;10115;50.906;4.438;2023-06-19T04:06:49;18.60;99.90
19906;DHT22;10115;50.906;4.438;2023-06-19T04:09:15;18.60;99.90
19906;DHT22;10115;50.906;4.438;2023-06-19T04:11:41;18.60;99.90
19906;DHT22;10115;50.906;4.438;2023-06-19T04:14:06;18.60;99.90
19906;DHT22;10115;50.906;4.438;2023-06-19T04:16:32;18.60;99.90
19906;DHT22;10115;50.906;4.438;2023-06-19T04:18:58;18.60;99.90
19906;DHT22;10115;50.906;4.438;2023-06-19T04:21:23;18.60;99.90
19906;DHT22;10115;50.906;4.438;2023-06-19T04:23:50;18.60;99.90
19906;DHT22;10115;50.906;4.438;2023-06-19T04:26:15;18.60;99.90
19906;DHT22;10115;50.906;4.438;2023-06-19T04:28:42;18.50;99.90
19906;DHT22;10115;50.906;4.438;2023-06-19T04:31:07;18.50;99.90
19906;DHT22;10115;50.906;4.438;2023-06-19T04:33:33;18.50;99.90
19906;DHT22;10115;50.906;4.438;2023-06-19T04:35:58;18.50;99.90
19906;DHT22;10115;50.906;4.438;2023-06-19T04:38:24;18.50;99.90
19906;DHT22;10115;50.906;4.438;2023-06-19T04:40:53;18.50;99.90
19906;DHT22;10115;50.906;4.438;2023-06-19T04:43:19;18.40;99.90
19906;DHT22;10115;50.906;4.438;2023-06-19T04:45:44;18.40;99.90
19906;DHT22;10115;50.906;4.438;2023-06-19T04:48:10;18.40;99.90
19906;DHT22;10115;50.906;4.438;2023-06-19T04:50:37;18.40;99.90
19906;DHT22;10115;50.906;4.438;2023-06-19T04:53:02;18.30;99.90
19906;DHT22;10115;50.906;4.438;2023-06-19T04:55:28;18.30;99.90
19906;DHT22;10115;50.906;4.438;2023-06-19T04:57:54;18.30;99.90
19906;DHT22;10115;50.906;4.438;2023-06-19T05:00:20;18.40;99.90
19906;DHT22;10115;50.906;4.438;2023-06-19T05:02:47;18.40;99.90
19906;DHT22;10115;50.906;4.438;2023-06-19T05:05:13;18.40;99.90
19906;DHT22;10115;50.906;4.438;2023-06-19T05:07:40;18.40;99.90
19906;DHT22;10115;50.906;4.438;2023-06-19T05:10:06;18.40;99.90
19906;DHT22;10115;50.906;4.438;2023-06-19T05:12:34;18.40;99.90
19906;DHT22;10115;50.906;4.438;2023-06-19T05:15:00;18.40;99.90
19906;DHT22;10115;50.906;4.438;2023-06-19T05:17:26;18.30;99.90
19906;DHT22;10115;50.906;4.438;2023-06-19T05:19:52;18.20;99.90
19906;DHT22;10115;50.906;4.438;2023-06-19T05:22:17;18.30;99.90
19906;DHT22;10115;50.906;4.438;2023-06-19T05:24:44;18.30;99.90
19906;DHT22;10115;50.906;4.438;2023-06-19T05:27:10;18.30;99.90
19906;DHT22;10115;50.906;4.438;2023-06-19T05:29:36;18.30;99.90
19906;DHT22;10115;50.906;4.438;2023-06-19T05:32:01;18.30;99.90
19906;DHT22;10115;50.906;4.438;2023-06-19T05:34:27;18.30;99.90
19906;DHT22;10115;50.906;4.438;2023-06-19T05:36:53;18.40;99.90
19906;DHT22;10115;50.906;4.438;2023-06-19T05:39:19;18.30;99.90
19906;DHT22;10115;50.906;4.438;2023-06-19T05:41:44;18.30;99.90
19906;DHT22;10115;50.906;4.438;2023-06-19T05:44:11;18.30;99.90
19906;DHT22;10115;50.906;4.438;2023-06-19T05:46:42;18.40;99.90
19906;DHT22;10115;50.906;4.438;2023-06-19T05:49:08;18.30;99.90
19906;DHT22;10115;50.906;4.438;2023-06-19T05:51:34;18.20;99.90
19906;DHT22;10115;50.906;4.438;2023-06-19T05:53:59;18.20;99.90
19906;DHT22;10115;50.906;4.438;2023-06-19T05:56:30;18.20;99.90
19906;DHT22;10115;50.906;4.438;2023-06-19T05:58:56;18.30;99.90
19906;DHT22;10115;50.906;4.438;2023-06-19T06:01:21;18.30;99.90
19906;DHT22;10115;50.906;4.438;2023-06-19T06:03:47;18.10;99.90
19906;DHT22;10115;50.906;4.438;2023-06-19T06:06:12;18.00;99.90
19906;DHT22;10115;50.906;4.438;2023-06-19T06:08:38;18.00;99.90
19906;DHT22;10115;50.906;4.438;2023-06-19T06:11:04;18.00;99.90
19906;DHT22;10115;50.906;4.438;2023-06-19T06:13:29;17.90;99.90
19906;DHT22;10115;50.906;4.438;2023-06-19T06:15:55;18.10;99.90
19906;DHT22;10115;50.906;4.438;2023-06-19T06:18:21;18.10;99.90
19906;DHT22;10115;50.906;4.438;2023-06-19T06:20:47;18.20;99.90
19906;DHT22;10115;50.906;4.438;2023-06-19T06:23:13;18.30;99.90
19906;DHT22;10115;50.906;4.438;2023-06-19T06:25:38;18.10;99.90
19906;DHT22;10115;50.906;4.438;2023-06-19T06:28:04;18.00;99.90
19906;DHT22;10115;50.906;4.438;2023-06-19T06:30:30;18.10;99.90
19906;DHT22;10115;50.906;4.438;2023-06-19T06:32:56;18.20;99.90
19906;DHT22;10115;50.906;4.438;2023-06-19T06:35:21;18.40;99.90
19906;DHT22;10115;50.906;4.438;2023-06-19T06:37:47;18.30;99.90
19906;DHT22;10115;50.906;4.438;2023-06-19T06:40:15;18.40;99.90
19906;DHT22;10115;50.906;4.438;2023-06-19T06:42:40;18.50;99.90
19906;DHT22;10115;50.906;4.438;2023-06-19T06:45:07;18.50;99.90
19906;DHT22;10115;50.906;4.438;2023-06-19T06:47:34;18.50;99.90
19906;DHT22;10115;50.906;4.438;2023-06-19T06:49:59;18.60;99.90
19906;DHT22;10115;50.906;4.438;2023-06-19T06:52:25;18.70;99.90
19906;DHT22;10115;50.906;4.438;2023-06-19T06:54:51;19.00;99.90
19906;DHT22;10115;50.906;4.438;2023-06-19T06:57:16;19.00;99.90
19906;DHT22;10115;50.906;4.438;2023-06-19T06:59:42;19.10;99.90
19906;DHT22;10115;50.906;4.438;2023-06-19T07:02:08;19.00;99.90
19906;DHT22;10115;50.906;4.438;2023-06-19T07:04:33;18.80;99.90
19906;DHT22;10115;50.906;4.438;2023-06-19T07:06:59;18.60;99.90
19906;DHT22;10115;50.906;4.438;2023-06-19T07:09:25;18.70;99.90
19906;DHT22;10115;50.906;4.438;2023-06-19T07:11:50;18.60;99.90
19906;DHT22;10115;50.906;4.438;2023-06-19T07:14:16;18.50;99.90
19906;DHT22;10115;50.906;4.438;2023-06-19T07:16:44;18.60;99.90
19906;DHT22;10115;50.906;4.438;2023-06-19T07:19:11;18.70;99.90
19906;DHT22;10115;50.906;4.438;2023-06-19T07:21:36;18.70;99.90
19906;DHT22;10115;50.906;4.438;2023-06-19T07:24:04;18.70;99.90
19906;DHT22;10115;50.906;4.438;2023-06-19T07:26:30;18.60;99.90
19906;DHT22;10115;50.906;4.438;2023-06-19T07:28:56;18.90;99.90
19906;DHT22;10115;50.906;4.438;2023-06-19T07:31:21;19.00;99.90
19906;DHT22;10115;50.906;4.438;2023-06-19T07:33:47;18.70;99.90
19906;DHT22;10115;50.906;4.438;2023-06-19T07:36:13;18.90;99.90
19906;DHT22;10115;50.906;4.438;2023-06-19T07:38:40;18.90;99.90
19906;DHT22;10115;50.906;4.438;2023-06-19T07:41:06;19.00;99.90
19906;DHT22;10115;50.906;4.438;2023-06-19T07:43:34;19.00;99.90
19906;DHT22;10115;50.906;4.438;2023-06-19T07:45:59;19.10;99.90
19906;DHT22;10115;50.906;4.438;2023-06-19T07:48:25;19.20;99.90
19906;DHT22;10115;50.906;4.438;2023-06-19T07:50:51;19.20;99.90
19906;DHT22;10115;50.906;4.438;2023-06-19T07:53:16;19.20;99.90
19906;DHT22;10115;50.906;4.438;2023-06-19T07:55:42;19.30;99.90
19906;DHT22;10115;50.906;4.438;2023-06-19T07:58:07;19.00;99.90
19906;DHT22;10115;50.906;4.438;2023-06-19T08:00:33;19.10;99.90
19906;DHT22;10115;50.906;4.438;2023-06-19T08:02:59;19.30;99.90
19906;DHT22;10115;50.906;4.438;2023-06-19T08:05:25;19.60;99.90
19906;DHT22;10115;50.906;4.438;2023-06-19T08:07:50;20.00;99.90
19906;DHT22;10115;50.906;4.438;2023-06-19T08:10:16;20.30;99.90
19906;DHT22;10115;50.906;4.438;2023-06-19T08:12:43;20.40;99.90
19906;DHT22;10115;50.906;4.438;2023-06-19T08:15:10;20.30;99.90
19906;DHT22;10115;50.906;4.438;2023-06-19T08:17:35;20.60;99.90
19906;DHT22;10115;50.906;4.438;2023-06-19T08:20:02;20.30;99.90
19906;DHT22;10115;50.906;4.438;2023-06-19T08:22:30;20.20;99.90
19906;DHT22;10115;50.906;4.438;2023-06-19T08:24:56;20.20;99.90
19906;DHT22;10115;50.906;4.438;2023-06-19T08:27:22;20.30;99.90
19906;DHT22;10115;50.906;4.438;2023-06-19T08:29:47;20.40;99.90
19906;DHT22;10115;50.906;4.438;2023-06-19T08:32:13;20.20;99.90
19906;DHT22;10115;50.906;4.438;2023-06-19T08:34:39;20.00;99.90
19906;DHT22;10115;50.906;4.438;2023-06-19T08:37:05;19.90;99.90
19906;DHT22;10115;50.906;4.438;2023-06-19T08:39:31;20.40;99.90
19906;DHT22;10115;50.906;4.438;2023-06-19T08:41:57;20.30;99.90
19906;DHT22;10115;50.906;4.438;2023-06-19T08:44:23;20.50;99.90
19906;DHT22;10115;50.906;4.438;2023-06-19T08:46:48;20.60;99.90
19906;DHT22;10115;50.906;4.438;2023-06-19T08:49:14;20.70;99.90
19906;DHT22;10115;50.906;4.438;2023-06-19T08:51:40;20.90;99.90
19906;DHT22;10115;50.906;4.438;2023-06-19T08:54:07;20.40;99.90
19906;DHT22;10115;50.906;4.438;2023-06-19T08:56:34;20.20;99.90
19906;DHT22;10115;50.906;4.438;2023-06-19T09:01:39;21.00;99.90
19906;DHT22;10115;50.906;4.438;2023-06-19T09:04:12;21.30;99.90
19906;DHT22;10115;50.906;4.438;2023-06-19T09:06:50;20.90;99.90
19906;DHT22;10115;50.906;4.438;2023-06-19T09:09:17;21.20;99.90
19906;DHT22;10115;50.906;4.438;2023-06-19T09:12:05;20.60;99.90
19906;DHT22;10115;50.906;4.438;2023-06-19T09:16:57;20.80;99.90
19906;DHT22;10115;50.906;4.438;2023-06-19T09:19:23;21.10;99.90
19906;DHT22;10115;50.906;4.438;2023-06-19T09:21:49;21.20;99.90
19906;DHT22;10115;50.906;4.438;2023-06-19T09:24:15;21.00;99.90
19906;DHT22;10115;50.906;4.438;2023-06-19T09:26:41;20.90;99.90
19906;DHT22;10115;50.906;4.438;2023-06-19T09:29:14;20.90;99.90
19906;DHT22;10115;50.906;4.438;2023-06-19T09:31:43;21.30;99.90
19906;DHT22;10115;50.906;4.438;2023-06-19T09:34:09;21.20;99.90
19906;DHT22;10115;50.906;4.438;2023-06-19T09:36:35;21.20;99.90
19906;DHT22;10115;50.906;4.438;2023-06-19T09:39:02;21.60;99.90
19906;DHT22;10115;50.906;4.438;2023-06-19T09:41:29;21.60;99.90
19906;DHT22;10115;50.906;4.438;2023-06-19T09:43:55;21.30;99.90
19906;DHT22;10115;50.906;4.438;2023-06-19T09:46:30;21.00;99.90
19906;DHT22;10115;50.906;4.438;2023-06-19T09:49:00;21.20;99.90
19906;DHT22;10115;50.906;4.438;2023-06-19T09:51:37;21.30;99.90
19906;DHT22;10115;50.906;4.438;2023-06-19T09:54:05;21.50;99.90
19906;DHT22;10115;50.906;4.438;2023-06-19T09:56:33;21.00;99.90
19906;DHT22;10115;50.906;4.438;2023-06-19T09:59:00;21.50;99.90
19906;DHT22;10115;50.906;4.438;2023-06-19T10:01:29;21.70;99.90
19906;DHT22;10115;50.906;4.438;2023-06-19T10:04:03;21.40;99.90
19906;DHT22;10115;50.906;4.438;2023-06-19T10:06:29;21.50;99.90
19906;DHT22;10115;50.906;4.438;2023-06-19T10:08:55;21.70;99.90
19906;DHT22;10115;50.906;4.438;2023-06-19T10:11:21;22.00;99.90
19906;DHT22;10115;50.906;4.438;2023-06-19T10:13:47;21.80;99.90
19906;DHT22;10115;50.906;4.438;2023-06-19T10:16:22;22.30;99.90
19906;DHT22;10115;50.906;4.438;2023-06-19T10:18:48;22.60;99.90
19906;DHT22;10115;50.906;4.438;2023-06-19T10:21:16;22.70;99.90
19906;DHT22;10115;50.906;4.438;2023-06-19T10:23:42;22.30;99.90
19906;DHT22;10115;50.906;4.438;2023-06-19T10:26:08;22.30;99.90
19906;DHT22;10115;50.906;4.438;2023-06-19T10:28:46;22.80;99.90
19906;DHT22;10115;50.906;4.438;2023-06-19T10:31:13;22.70;99.90
19906;DHT22;10115;50.906;4.438;2023-06-19T10:33:38;22.60;99.90
19906;DHT22;10115;50.906;4.438;2023-06-19T10:36:21;22.80;99.90
19906;DHT22;10115;50.906;4.438;2023-06-19T10:38:48;22.70;99.90
19906;DHT22;10115;50.906;4.438;2023-06-19T10:41:19;22.70;99.90
19906;DHT22;10115;50.906;4.438;2023-06-19T10:44:05;22.80;99.90
19906;DHT22;10115;50.906;4.438;2023-06-19T10:46:33;23.10;99.90
19906;DHT22;10115;50.906;4.438;2023-06-19T10:49:02;23.20;99.90
19906;DHT22;10115;50.906;4.438;2023-06-19T10:51:30;22.60;99.90
19906;DHT22;10115;50.906;4.438;2023-06-19T10:53:56;22.50;99.90
19906;DHT22;10115;50.906;4.438;2023-06-19T10:56:23;22.90;99.90
19906;DHT22;10115;50.906;4.438;2023-06-19T10:59:06;23.20;99.90
19906;DHT22;10115;50.906;4.438;2023-06-19T11:01:36;23.50;99.90
19906;DHT22;10115;50.906;4.438;2023-06-19T11:04:07;23.80;99.90
19906;DHT22;10115;50.906;4.438;2023-06-19T11:06:34;23.90;99.90
19906;DHT22;10115;50.906;4.438;2023-06-19T11:09:00;24.40;99.90
19906;DHT22;10115;50.906;4.438;2023-06-19T11:14:04;23.70;99.90
19906;DHT22;10115;50.906;4.438;2023-06-19T11:16:30;24.00;99.90
19906;DHT22;10115;50.906;4.438;2023-06-19T11:18:56;24.10;99.90
19906;DHT22;10115;50.906;4.438;2023-06-19T11:21:32;24.70;99.90
19906;DHT22;10115;50.906;4.438;2023-06-19T11:24:04;24.80;99.90
19906;DHT22;10115;50.906;4.438;2023-06-19T11:26:43;24.70;99.90
19906;DHT22;10115;50.906;4.438;2023-06-19T11:29:21;24.20;99.90
19906;DHT22;10115;50.906;4.438;2023-06-19T11:31:48;23.80;99.90
19906;DHT22;10115;50.906;4.438;2023-06-19T11:34:16;23.70;99.90
19906;DHT22;10115;50.906;4.438;2023-06-19T11:36:42;24.10;99.90
19906;DHT22;10115;50.906;4.438;2023-06-19T11:39:13;24.40;99.90
19906;DHT22;10115;50.906;4.438;2023-06-19T11:41:39;24.30;99.90
19906;DHT22;10115;50.906;4.438;2023-06-19T11:44:06;24.20;99.90
19906;DHT22;10115;50.906;4.438;2023-06-19T11:46:33;24.50;99.90
19906;DHT22;10115;50.906;4.438;2023-06-19T11:49:16;24.90;99.90
19906;DHT22;10115;50.906;4.438;2023-06-19T11:51:43;25.10;99.90
19906;DHT22;10115;50.906;4.438;2023-06-19T11:54:10;24.60;99.90
19906;DHT22;10115;50.906;4.438;2023-06-19T11:56:37;24.40;99.90
19906;DHT22;10115;50.906;4.438;2023-06-19T11:59:04;24.40;99.90
19906;DHT22;10115;50.906;4.438;2023-06-19T12:01:32;24.90;99.90
19906;DHT22;10115;50.906;4.438;2023-06-19T12:03:58;25.60;99.90
19906;DHT22;10115;50.906;4.438;2023-06-19T12:06:24;25.60;99.90
19906;DHT22;10115;50.906;4.438;2023-06-19T12:08:50;25.40;99.90
19906;DHT22;10115;50.906;4.438;2023-06-19T12:11:16;25.30;99.90
19906;DHT22;10115;50.906;4.438;2023-06-19T12:13:43;25.50;99.90
19906;DHT22;10115;50.906;4.438;2023-06-19T12:16:10;26.00;99.90
19906;DHT22;10115;50.906;4.438;2023-06-19T12:18:36;26.00;99.90
19906;DHT22;10115;50.906;4.438;2023-06-19T12:21:02;25.70;99.90
19906;DHT22;10115;50.906;4.438;2023-06-19T12:23:28;26.20;99.90
19906;DHT22;10115;50.906;4.438;2023-06-19T12:25:54;26.50;99.90
19906;DHT22;10115;50.906;4.438;2023-06-19T12:28:20;25.70;99.90
19906;DHT22;10115;50.906;4.438;2023-06-19T12:30:47;26.60;99.90
19906;DHT22;10115;50.906;4.438;2023-06-19T12:33:15;27.10;99.90
19906;DHT22;10115;50.906;4.438;2023-06-19T12:35:41;26.60;99.90
19906;DHT22;10115;50.906;4.438;2023-06-19T12:38:07;27.00;99.90
19906;DHT22;10115;50.906;4.438;2023-06-19T12:40:33;26.50;99.90
19906;DHT22;10115;50.906;4.438;2023-06-19T12:42:59;26.00;99.90
19906;DHT22;10115;50.906;4.438;2023-06-19T12:45:25;26.10;99.90
19906;DHT22;10115;50.906;4.438;2023-06-19T12:47:50;26.10;99.90
19906;DHT22;10115;50.906;4.438;2023-06-19T12:50:16;25.50;99.90
19906;DHT22;10115;50.906;4.438;2023-06-19T12:52:43;25.60;99.90
19906;DHT22;10115;50.906;4.438;2023-06-19T12:55:08;26.50;99.90
19906;DHT22;10115;50.906;4.438;2023-06-19T12:57:34;26.60;99.90
19906;DHT22;10115;50.906;4.438;2023-06-19T13:00:00;26.30;99.90
19906;DHT22;10115;50.906;4.438;2023-06-19T13:02:25;26.40;99.90
19906;DHT22;10115;50.906;4.438;2023-06-19T13:04:52;26.70;99.90
19906;DHT22;10115;50.906;4.438;2023-06-19T13:07:18;27.20;99.90
19906;DHT22;10115;50.906;4.438;2023-06-19T13:09:43;27.90;99.90
19906;DHT22;10115;50.906;4.438;2023-06-19T13:12:09;29.50;99.90
19906;DHT22;10115;50.906;4.438;2023-06-19T13:14:35;30.30;99.90
19906;DHT22;10115;50.906;4.438;2023-06-19T13:17:03;30.60;99.90
19906;DHT22;10115;50.906;4.438;2023-06-19T13:19:28;31.50;99.90
19906;DHT22;10115;50.906;4.438;2023-06-19T13:21:54;33.30;97.60
19906;DHT22;10115;50.906;4.438;2023-06-19T13:24:19;32.70;95.50
19906;DHT22;10115;50.906;4.438;2023-06-19T13:26:45;31.20;95.10
19906;DHT22;10115;50.906;4.438;2023-06-19T13:29:11;29.80;96.50
19906;DHT22;10115;50.906;4.438;2023-06-19T13:31:37;29.20;96.30
19906;DHT22;10115;50.906;4.438;2023-06-19T13:34:03;28.40;96.50
19906;DHT22;10115;50.906;4.438;2023-06-19T13:36:29;28.70;96.80
19906;DHT22;10115;50.906;4.438;2023-06-19T13:38:55;28.90;97.00
19906;DHT22;10115;50.906;4.438;2023-06-19T13:41:21;27.90;98.30
19906;DHT22;10115;50.906;4.438;2023-06-19T13:43:51;29.00;96.80
19906;DHT22;10115;50.906;4.438;2023-06-19T13:46:19;28.20;97.10
19906;DHT22;10115;50.906;4.438;2023-06-19T13:48:46;29.90;97.50
19906;DHT22;10115;50.906;4.438;2023-06-19T13:51:16;31.80;94.60
19906;DHT22;10115;50.906;4.438;2023-06-19T13:53:42;32.50;92.70
19906;DHT22;10115;50.906;4.438;2023-06-19T13:56:07;31.60;92.50
19906;DHT22;10115;50.906;4.438;2023-06-19T13:58:33;29.90;93.40
19906;DHT22;10115;50.906;4.438;2023-06-19T14:00:59;29.60;94.00
19906;DHT22;10115;50.906;4.438;2023-06-19T14:03:24;30.70;93.90
19906;DHT22;10115;50.906;4.438;2023-06-19T14:05:50;30.80;93.20
19906;DHT22;10115;50.906;4.438;2023-06-19T14:08:16;31.90;93.30
19906;DHT22;10115;50.906;4.438;2023-06-19T14:10:41;32.70;90.30
19906;DHT22;10115;50.906;4.438;2023-06-19T14:13:08;31.10;90.40
19906;DHT22;10115;50.906;4.438;2023-06-19T14:15:33;31.00;91.30
19906;DHT22;10115;50.906;4.438;2023-06-19T14:17:59;33.20;88.70
19906;DHT22;10115;50.906;4.438;2023-06-19T14:20:25;33.70;85.90
19906;DHT22;10115;50.906;4.438;2023-06-19T14:22:51;34.70;84.10
19906;DHT22;10115;50.906;4.438;2023-06-19T14:25:16;34.90;82.00
19906;DHT22;10115;50.906;4.438;2023-06-19T14:27:42;31.10;85.60
19906;DHT22;10115;50.906;4.438;2023-06-19T14:30:08;29.90;89.10
19906;DHT22;10115;50.906;4.438;2023-06-19T14:32:35;31.60;87.00
19906;DHT22;10115;50.906;4.438;2023-06-19T14:35:02;31.70;87.30
19906;DHT22;10115;50.906;4.438;2023-06-19T14:37:28;31.40;86.60
19906;DHT22;10115;50.906;4.438;2023-06-19T14:39:54;29.60;90.50
19906;DHT22;10115;50.906;4.438;2023-06-19T14:42:22;29.10;91.70
19906;DHT22;10115;50.906;4.438;2023-06-19T14:44:47;29.50;91.70
19906;DHT22;10115;50.906;4.438;2023-06-19T14:47:13;30.30;90.80
19906;DHT22;10115;50.906;4.438;2023-06-19T14:49:39;29.50;91.30
19906;DHT22;10115;50.906;4.438;2023-06-19T14:52:05;30.00;91.30
19906;DHT22;10115;50.906;4.438;2023-06-19T14:54:31;30.00;91.30
19906;DHT22;10115;50.906;4.438;2023-06-19T14:56:57;30.40;91.20
19906;DHT22;10115;50.906;4.438;2023-06-19T14:59:23;31.80;90.60
19906;DHT22;10115;50.906;4.438;2023-06-19T15:01:48;31.50;89.20
19906;DHT22;10115;50.906;4.438;2023-06-19T15:04:14;31.40;90.60
19906;DHT22;10115;50.906;4.438;2023-06-19T15:06:39;31.80;89.10
19906;DHT22;10115;50.906;4.438;2023-06-19T15:09:05;32.80;88.60
19906;DHT22;10115;50.906;4.438;2023-06-19T15:11:31;33.10;88.20
19906;DHT22;10115;50.906;4.438;2023-06-19T15:13:56;31.00;89.50
19906;DHT22;10115;50.906;4.438;2023-06-19T15:16:22;29.20;90.90
19906;DHT22;10115;50.906;4.438;2023-06-19T15:18:49;28.40;91.50
19906;DHT22;10115;50.906;4.438;2023-06-19T15:21:14;28.80;91.80
19906;DHT22;10115;50.906;4.438;2023-06-19T15:23:40;28.90;91.20
19906;DHT22;10115;50.906;4.438;2023-06-19T15:26:05;28.90;91.70
19906;DHT22;10115;50.906;4.438;2023-06-19T15:28:34;28.40;92.20
19906;DHT22;10115;50.906;4.438;2023-06-19T15:31:01;28.10;92.50
19906;DHT22;10115;50.906;4.438;2023-06-19T15:33:27;27.70;93.90
19906;DHT22;10115;50.906;4.438;2023-06-19T15:35:52;28.70;93.50
19906;DHT22;10115;50.906;4.438;2023-06-19T15:38:18;29.40;92.30
19906;DHT22;10115;50.906;4.438;2023-06-19T15:40:44;30.30;91.30